Time;durP1;ratioP1;P1;durP2;ratioP2;P2;SDS_P1;SDS_P2;PMS_P1;PMS_P2;Temp;Humidity;BMP_temperature;BMP_pressure;BME280_temperature;BME280_humidity;BME280_pressure;Samples;Min_cycle;Max_cycle;Signal;HPM_P1;HPM_P2
2022/09/11 00:01:12;;;;;;;8.40;2.70;;;;;;;9.94;100.00;100728.27;1695210;84;22075;-58
2022/09/11 00:03:45;;;;;;;6.30;2.57;;;;;;;9.90;100.00;100719.16;1693226;84;21189;-56
2022/09/11 00:06:13;;;;;;;7.67;2.93;;;;;;;9.86;100.00;100721.78;1686924;84;21085;-67
2022/09/11 00:08:41;;;;;;;5.87;2.80;;;;;;;9.84;100.00;100729.42;1688389;84;21278;-56
2022/09/11 00:11:16;;;;;;;9.10;2.60;;;;;;;9.74;100.00;100733.53;1688409;84;21066;-57
2022/09/11 00:13:45;;;;;;;6.43;3.00;;;;;;;9.68;100.00;100734.98;1687703;84;21232;-61
2022/09/11 00:16:34;;;;;;;6.37;2.57;;;;;;;9.65;100.00;100730.10;1687542;84;21190;-56
2022/09/11 00:19:06;;;;;;;8.43;3.10;;;;;;;9.60;100.00;100730.29;1688325;84;21406;-56
2022/09/11 00:21:33;;;;;;;;;;;;;;;9.52;100.00;100721.20;1689923;84;21262;-60
2022/09/11 00:24:00;;;;;;;5.40;2.60;;;;;;;9.45;100.00;100724.44;1688680;84;20565;-55
2022/09/11 00:26:27;;;;;;;8.33;3.13;;;;;;;9.36;100.00;100729.34;1688616;84;21285;-56
2022/09/11 00:28:55;;;;;;;6.37;2.50;;;;;;;9.32;100.00;100716.80;1688525;84;21356;-58
2022/09/11 00:31:24;;;;;;;12.33;2.70;;;;;;;9.28;100.00;100722.84;1688453;84;21323;-67
2022/09/11 00:33:51;;;;;;;5.42;2.80;;;;;;;9.22;100.00;100712.58;1688376;84;22662;-56
2022/09/11 00:36:21;;;;;;;5.03;2.50;;;;;;;9.19;100.00;100709.00;1688319;84;21153;-55
2022/09/11 00:38:49;;;;;;;7.47;3.17;;;;;;;9.16;100.00;100711.92;1688727;84;21584;-55
2022/09/11 00:41:20;;;;;;;9.80;3.60;;;;;;;9.12;100.00;100714.52;1688582;84;21326;-55
2022/09/11 00:43:59;;;;;;;5.27;2.93;;;;;;;9.11;100.00;100721.20;1687843;84;21309;-56
2022/09/11 00:46:47;;;;;;;7.03;2.60;;;;;;;9.08;100.00;100717.12;1688507;84;21875;-55
2022/09/11 00:49:38;;;;;;;7.12;2.67;;;;;;;9.08;100.00;100713.72;1688155;84;21157;-64
2022/09/11 00:52:13;;;;;;;6.53;2.17;;;;;;;9.11;100.00;100709.50;1656257;84;21334;-55
2022/09/11 00:54:48;;;;;;;7.13;3.53;;;;;;;9.14;100.00;100700.88;1688676;84;21683;-55
2022/09/11 00:57:16;;;;;;;7.67;2.60;;;;;;;9.11;100.00;100703.00;1688612;84;21726;-55
2022/09/11 00:59:44;;;;;;;4.85;2.67;;;;;;;9.13;100.00;100701.03;1662028;84;21235;-55
2022/09/11 01:02:12;;;;;;;7.47;2.73;;;;;;;9.16;100.00;100705.42;1688597;84;21601;-57
2022/09/11 01:04:41;;;;;;;8.37;3.50;;;;;;;9.15;100.00;100703.00;1686669;84;21123;-66
2022/09/11 01:07:09;;;;;;;6.70;2.62;;;;;;;9.15;100.00;100700.39;1685250;85;21250;-55
2022/09/11 01:09:37;;;;;;;7.50;3.40;;;;;;;9.10;100.00;100695.69;1685925;84;21011;-55
2022/09/11 01:12:35;;;;;;;6.33;2.93;;;;;;;9.09;100.00;100698.42;1685621;84;21218;-55
2022/09/11 01:15:10;;;;;;;5.07;2.40;;;;;;;9.05;100.00;100695.83;1685451;85;21308;-55
2022/09/11 01:18:05;;;;;;;5.73;3.00;;;;;;;8.97;100.00;100698.75;1685832;84;21464;-55
2022/09/11 01:21:17;;;;;;;5.83;3.03;;;;;;;8.94;100.00;100690.45;1685845;84;21190;-55
2022/09/11 01:24:02;;;;;;;6.92;2.95;;;;;;;8.90;100.00;100696.50;1685651;84;21867;-55
2022/09/11 01:27:23;;;;;;;4.40;2.57;;;;;;;8.83;100.00;100692.91;1685690;85;21465;-55
2022/09/11 01:30:03;;;;;;;;;;;;;;;8.77;100.00;100686.55;1688293;84;21250;-57
2022/09/11 01:33:00;;;;;;;4.90;2.50;;;;;;;8.73;100.00;100689.63;1685223;84;21265;-57
2022/09/11 01:35:54;;;;;;;5.63;2.50;;;;;;;8.68;100.00;100694.02;1685817;84;21432;-58
2022/09/11 01:38:36;;;;;;;6.20;2.85;;;;;;;8.62;100.00;100693.84;1679093;85;21607;-57
2022/09/11 01:41:10;;;;;;;9.43;2.33;;;;;;;8.56;100.00;100704.86;1686014;84;20955;-61
2022/09/11 01:43:42;;;;;;;4.95;2.37;;;;;;;8.51;100.00;100706.64;1686017;85;22813;-57
2022/09/11 01:46:09;;;;;;;4.47;2.62;;;;;;;8.43;100.00;100700.12;1691398;84;21252;-55
2022/09/11 01:48:41;;;;;;;6.45;2.55;;;;;;;8.38;100.00;100694.11;1685314;85;20995;-55
2022/09/11 01:51:10;;;;;;;7.40;2.70;;;;;;;8.32;100.00;100699.89;1684929;85;21034;-59
2022/09/11 01:53:39;;;;;;;4.65;2.52;;;;;;;8.30;100.00;100696.66;1685647;84;21569;-55
2022/09/11 01:56:12;;;;;;;5.75;2.40;;;;;;;8.26;100.00;100687.55;1685319;85;20971;-55
2022/09/11 01:58:38;;;;;;;;;;;;;;;8.26;100.00;100692.25;1688243;85;21462;-55
2022/09/11 02:01:18;;;;;;;5.72;2.62;;;;;;;8.25;100.00;100683.30;1690318;84;20140;-59
2022/09/11 02:03:53;;;;;;;10.50;3.10;;;;;;;8.22;100.00;100680.55;1686330;84;21087;-55
2022/09/11 02:06:25;;;;;;;5.67;2.67;;;;;;;8.22;100.00;100681.02;1695491;84;21058;-54
2022/09/11 02:08:57;;;;;;;8.55;2.92;;;;;;;8.28;100.00;100687.70;1694712;84;21053;-64
2022/09/11 02:11:24;;;;;;;6.55;2.70;;;;;;;8.28;100.00;100677.31;1695430;84;21247;-55
2022/09/11 02:14:13;;;;;;;7.40;2.77;;;;;;;8.30;100.00;100673.28;1695602;83;21555;-55
2022/09/11 02:16:52;;;;;;;4.97;2.52;;;;;;;8.31;100.00;100672.78;1671314;84;21441;-55
2022/09/11 02:19:25;;;;;;;6.12;2.77;;;;;;;8.32;100.00;100669.21;1695658;84;20995;-55
2022/09/11 02:21:52;;;;;;;5.70;2.20;;;;;;;8.28;100.00;100666.92;1695965;84;21022;-55
2022/09/11 02:24:21;;;;;;;5.25;2.50;;;;;;;8.25;100.00;100665.94;1694824;84;22192;-66
2022/09/11 02:27:05;;;;;;;5.45;2.40;;;;;;;8.21;100.00;100662.52;1695800;84;22138;-55
2022/09/11 02:29:35;;;;;;;6.12;1.95;;;;;;;8.21;100.00;100654.73;1696145;84;21066;-55
2022/09/11 02:32:02;;;;;;;3.90;2.27;;;;;;;8.18;100.00;100655.03;1665225;84;21014;-64
2022/09/11 02:34:33;;;;;;;8.28;2.92;;;;;;;8.14;100.00;100655.02;1695434;84;20978;-57
2022/09/11 02:37:11;;;;;;;6.50;3.40;;;;;;;8.12;100.00;100651.78;1665455;84;21267;-55
2022/09/11 02:39:59;;;;;;;7.47;3.10;;;;;;;8.14;100.00;100656.32;1695921;84;20995;-55
2022/09/11 02:42:51;;;;;;;4.70;2.40;;;;;;;8.18;100.00;100651.14;1695717;84;21071;-56
2022/09/11 02:45:54;;;;;;;5.40;2.50;;;;;;;8.17;100.00;100659.42;1695323;84;21132;-57
2022/09/11 02:48:34;;;;;;;7.25;3.45;;;;;;;8.18;100.00;100661.53;1695222;84;21034;-55
2022/09/11 02:51:27;;;;;;;6.25;2.25;;;;;;;8.19;100.00;100657.49;1659568;84;21221;-62
2022/09/11 02:54:16;;;;;;;8.13;2.30;;;;;;;8.22;100.00;100662.38;1687527;84;20926;-55
2022/09/11 02:57:25;;;;;;;5.20;2.12;;;;;;;8.26;100.00;100656.39;1656272;84;21486;-57
2022/09/11 02:59:56;;;;;;;4.33;2.33;;;;;;;8.29;100.00;100658.64;1694955;84;21096;-56
2022/09/11 03:02:26;;;;;;;8.38;2.47;;;;;;;8.37;100.00;100655.25;1694965;84;21002;-55
2022/09/11 03:04:54;;;;;;;4.30;2.15;;;;;;;8.39;100.00;100650.27;1687416;84;21141;-55
2022/09/11 03:07:24;;;;;;;6.40;2.60;;;;;;;8.42;100.00;100651.25;1678537;85;21022;-56
2022/09/11 03:09:51;;;;;;;10.13;2.22;;;;;;;8.44;100.00;100641.98;1678790;85;21456;-55
2022/09/11 03:12:21;;;;;;;6.00;2.50;;;;;;;8.47;100.00;100632.09;1678422;85;21098;-57
2022/09/11 03:14:51;;;;;;;4.70;2.12;;;;;;;8.57;100.00;100630.66;1678845;84;21506;-55
2022/09/11 03:17:18;;;;;;;5.30;2.20;;;;;;;8.80;100.00;100620.44;1678301;85;22169;-57
2022/09/11 03:19:48;;;;;;;5.47;2.50;;;;;;;9.14;100.00;100623.35;1678680;84;21565;-55
2022/09/11 03:22:15;;;;;;;6.78;2.70;;;;;;;9.44;100.00;100626.55;1678826;84;21042;-60
2022/09/11 03:24:43;;;;;;;6.28;2.70;;;;;;;9.70;100.00;100621.60;1678801;84;21015;-55
2022/09/11 03:27:11;;;;;;;6.63;2.70;;;;;;;9.80;100.00;100622.69;1678405;85;21365;-57
2022/09/11 03:29:40;;;;;;;6.07;2.60;;;;;;;9.84;100.00;100622.67;1678899;84;21868;-55
2022/09/11 03:32:09;;;;;;;7.27;2.27;;;;;;;9.85;100.00;100622.98;1679484;85;22597;-55
2022/09/11 03:34:36;;;;;;;6.97;2.30;;;;;;;10.05;100.00;100624.70;1678970;85;21233;-55
2022/09/11 03:37:03;;;;;;;9.40;2.80;;;;;;;10.32;100.00;100615.14;1678895;84;21207;-57
2022/09/11 03:39:31;;;;;;;6.67;2.40;;;;;;;10.63;100.00;100616.88;1678497;85;21219;-55
2022/09/11 03:41:59;;;;;;;6.00;1.87;;;;;;;10.87;100.00;100621.92;1679078;84;21352;-55
2022/09/11 03:44:28;;;;;;;4.83;2.00;;;;;;;10.89;98.58;100626.45;1678451;85;21252;-56
2022/09/11 03:46:56;;;;;;;4.03;2.07;;;;;;;10.90;96.67;100625.45;1679082;85;21367;-55
2022/09/11 03:49:23;;;;;;;4.37;2.00;;;;;;;10.90;95.27;100617.63;1678470;84;21382;-55
2022/09/11 03:51:50;;;;;;;6.70;2.77;;;;;;;10.85;93.50;100611.34;1679284;85;22150;-57
2022/09/11 03:54:19;;;;;;;6.57;2.10;;;;;;;10.88;92.08;100603.97;1678896;84;21886;-61
2022/09/11 03:56:48;;;;;;;6.40;2.40;;;;;;;10.84;91.77;100604.51;1678774;85;21706;-55
2022/09/11 03:59:16;;;;;;;4.33;1.90;;;;;;;10.86;92.24;100602.02;1678410;84;21715;-56
2022/09/11 04:01:44;;;;;;;6.93;2.17;;;;;;;11.03;92.24;100591.46;1679096;85;21620;-55
2022/09/11 04:04:12;;;;;;;6.43;2.70;;;;;;;11.69;84.30;100562.34;1678584;85;21327;-55
2022/09/11 04:06:42;;;;;;;7.10;2.40;;;;;;;11.69;84.30;100562.34;1658612;86;21933;-55
2022/09/11 04:09:10;;;;;;;4.90;2.10;;;;;;;11.82;79.56;100557.75;1657895;86;21457;-56
2022/09/11 04:11:39;;;;;;;5.20;2.50;;;;;;;11.61;80.09;100554.61;1658597;86;21484;-55
2022/09/11 04:14:08;;;;;;;5.83;2.13;;;;;;;11.61;80.09;100554.61;1658468;86;21618;-66
2022/09/11 04:16:37;;;;;;;7.00;2.60;;;;;;;11.54;80.76;100577.21;1658526;86;22030;-56
2022/09/11 04:19:04;;;;;;;6.33;2.70;;;;;;;11.54;80.76;100577.21;1655831;86;21494;-57
2022/09/11 04:21:33;;;;;;;5.93;2.50;;;;;;;11.53;81.37;100573.80;1658384;86;22091;-55
2022/09/11 04:24:01;;;;;;;5.57;2.37;;;;;;;11.43;82.68;100581.08;1658572;86;21513;-66
2022/09/11 04:26:30;;;;;;;4.83;2.40;;;;;;;11.32;83.06;100572.39;1656070;86;21612;-55
2022/09/11 04:29:00;;;;;;;6.47;2.30;;;;;;;11.23;85.59;100580.81;1658015;86;21494;-57
2022/09/11 04:31:27;;;;;;;6.53;2.23;;;;;;;11.16;88.46;100584.62;1658730;86;22388;-55
2022/09/11 04:33:55;;;;;;;5.80;2.27;;;;;;;11.08;91.31;100573.47;1658867;86;21400;-63
2022/09/11 04:36:23;;;;;;;5.93;1.93;;;;;;;11.03;94.96;100564.08;1658680;86;21893;-55
2022/09/11 04:38:57;;;;;;;4.70;2.33;;;;;;;11.03;94.96;100564.08;1658167;86;21961;-58
2022/09/11 04:41:24;;;;;;;7.33;2.37;;;;;;;11.00;96.79;100563.12;1658801;86;22420;-55
2022/09/11 04:43:55;;;;;;;7.30;2.50;;;;;;;11.02;97.14;100559.82;1658532;86;22355;-64
2022/09/11 04:46:23;;;;;;;5.50;1.95;;;;;;;11.07;98.00;100550.98;1658582;86;21904;-55
2022/09/11 04:48:52;;;;;;;4.80;2.30;;;;;;;11.10;99.03;100550.14;1658432;86;21126;-65
2022/09/11 04:51:26;;;;;;;4.80;2.17;;;;;;;11.14;98.46;100556.61;1658550;86;21699;-55
2022/09/11 04:53:56;;;;;;;6.70;2.53;;;;;;;11.21;95.97;100555.37;1658588;86;21139;-57
2022/09/11 04:56:27;;;;;;;5.28;2.30;;;;;;;11.25;98.15;100551.92;1658778;86;22193;-55
2022/09/11 04:59:04;;;;;;;7.03;1.90;;;;;;;11.35;98.51;100550.66;1658542;86;21503;-55
2022/09/11 05:01:33;;;;;;;6.97;2.20;;;;;;;11.56;97.10;100549.14;1657952;86;21344;-66
2022/09/11 05:04:02;;;;;;;6.53;1.90;;;;;;;11.56;97.10;100549.14;1658689;86;22106;-54
2022/09/11 05:06:30;;;;;;;4.10;1.77;;;;;;;11.69;95.62;100553.20;1687450;84;21385;-62
2022/09/11 05:09:03;;;;;;;5.30;1.93;;;;;;;11.85;91.94;100550.39;1695337;84;22562;-54
2022/09/11 05:11:32;;;;;;;6.83;1.90;;;;;;;12.04;90.54;100550.80;1694678;84;21538;-58
2022/09/11 05:14:00;;;;;;;4.97;2.37;;;;;;;12.27;88.83;100551.42;1695136;84;21774;-55
2022/09/11 05:16:29;;;;;;;4.37;2.10;;;;;;;12.52;84.43;100548.45;1694694;84;21604;-55
2022/09/11 05:18:58;;;;;;;9.23;2.10;;;;;;;12.77;83.07;100543.13;1695302;84;22345;-55
2022/09/11 05:21:25;;;;;;;4.90;1.80;;;;;;;13.03;79.79;100538.58;1694802;84;22293;-62
2022/09/11 05:23:54;;;;;;;4.90;1.87;;;;;;;13.22;77.69;100542.30;1694904;84;21648;-55
2022/09/11 05:26:27;;;;;;;6.97;1.93;;;;;;;13.34;75.94;100531.62;1694815;84;21469;-57
2022/09/11 05:28:55;;;;;;;4.93;1.90;;;;;;;13.52;73.98;100529.77;1695389;84;21045;-55
2022/09/11 05:31:24;;;;;;;8.13;2.37;;;;;;;13.68;72.49;100531.77;1695419;84;21042;-58
2022/09/11 05:33:52;;;;;;;5.63;2.07;;;;;;;13.87;71.38;100527.89;1695115;84;21175;-55
2022/09/11 05:36:20;;;;;;;9.37;1.97;;;;;;;14.12;69.06;100524.70;1669863;84;21038;-55
2022/09/11 05:38:48;;;;;;;3.87;1.63;;;;;;;14.37;67.61;100511.83;1695266;84;21649;-55
2022/09/11 05:41:16;;;;;;;6.67;2.67;;;;;;;14.64;65.38;100512.65;1695222;84;21062;-54
2022/09/11 05:43:44;;;;;;;6.90;2.20;;;;;;;14.88;63.43;100505.95;1694652;84;21010;-56
2022/09/11 05:46:14;;;;;;;4.73;2.53;;;;;;;15.08;62.67;100493.59;1694566;84;21504;-58
2022/09/11 05:48:42;;;;;;;4.90;2.13;;;;;;;15.30;61.41;100505.13;1695163;84;21085;-57
2022/09/11 05:51:14;;;;;;;5.20;1.90;;;;;;;15.39;58.75;100497.84;1695226;84;21015;-55
2022/09/11 05:53:42;;;;;;;5.13;1.93;;;;;;;15.39;58.92;100485.50;1694972;84;21487;-56
2022/09/11 05:56:15;;;;;;;5.50;2.23;;;;;;;15.42;58.10;100483.78;1695011;84;21081;-64
2022/09/11 05:58:43;;;;;;;8.13;2.20;;;;;;;15.43;58.03;100482.76;1695532;84;21282;-55
2022/09/11 06:01:13;;;;;;;6.43;1.97;;;;;;;15.41;57.72;100481.34;1695427;84;20990;-56
2022/09/11 06:03:40;;;;;;;3.90;2.10;;;;;;;15.40;58.22;100481.85;1664701;84;21458;-55
2022/09/11 06:06:10;;;;;;;4.57;1.70;;;;;;;15.49;58.11;100484.56;1695083;84;21000;-63
2022/09/11 06:08:41;;;;;;;5.20;1.90;;;;;;;15.51;57.56;100480.39;1694982;84;20958;-54
2022/09/11 06:11:08;;;;;;;5.50;1.57;;;;;;;15.49;57.15;100481.09;1695721;84;21210;-65
2022/09/11 06:13:39;;;;;;;6.63;2.23;;;;;;;15.48;57.72;100469.78;1694952;84;21022;-54
2022/09/11 06:16:09;;;;;;;4.83;1.70;;;;;;;15.48;57.92;100476.36;1694480;84;21567;-58
2022/09/11 06:18:36;;;;;;;5.07;1.63;;;;;;;15.47;56.72;100472.13;1695089;84;21009;-55
2022/09/11 06:21:07;;;;;;;5.13;1.77;;;;;;;15.49;56.18;100471.42;1695419;84;21061;-55
2022/09/11 06:23:38;;;;;;;4.30;1.87;;;;;;;15.52;57.19;100470.17;1694923;84;21091;-55
2022/09/11 06:26:09;;;;;;;3.83;1.10;;;;;;;15.55;56.64;100463.19;1694758;84;21054;-65
2022/09/11 06:28:38;;;;;;;3.37;1.35;;;;;;;15.61;54.26;100464.98;1695342;84;21757;-55
2022/09/11 06:31:06;;;;;;;6.10;1.43;;;;;;;15.70;52.41;100457.17;1695182;84;21026;-54
2022/09/11 06:33:35;;;;;;;3.77;1.43;;;;;;;15.79;51.10;100450.63;1694850;84;21113;-56
2022/09/11 06:36:05;;;;;;;5.03;1.90;;;;;;;15.88;50.77;100453.03;1694657;84;21105;-55
2022/09/11 06:38:33;;;;;;;3.90;1.80;;;;;;;16.01;50.56;100447.15;1695341;84;21056;-54
2022/09/11 06:41:02;;;;;;;4.00;1.43;;;;;;;16.16;49.95;100437.63;1695310;84;20955;-55
2022/09/11 06:43:30;;;;;;;4.90;1.60;;;;;;;16.30;49.83;100443.08;1664661;84;20918;-66
2022/09/11 06:46:13;;;;;;;4.17;1.40;;;;;;;16.39;48.72;100455.44;1694913;84;21586;-55
2022/09/11 06:48:41;;;;;;;5.33;1.93;;;;;;;16.33;48.09;100439.22;1695601;84;21799;-54
2022/09/11 06:51:11;;;;;;;4.67;1.20;;;;;;;16.38;48.40;100426.73;1695614;84;21018;-55
2022/09/11 06:53:39;;;;;;;4.97;1.70;;;;;;;16.44;48.67;100417.95;1694847;84;20962;-56
2022/09/11 06:56:15;;;;;;;4.40;1.37;;;;;;;16.49;48.71;100419.44;1695674;84;21472;-55
2022/09/11 06:58:44;;;;;;;5.70;1.60;;;;;;;16.54;48.53;100426.16;1695593;84;21002;-54
2022/09/11 07:01:15;;;;;;;5.53;1.30;;;;;;;16.68;48.78;100424.20;1695377;84;21961;-64
2022/09/11 07:03:44;;;;;;;5.37;1.70;;;;;;;16.76;48.22;100419.47;1695260;84;21004;-54
2022/09/11 07:06:13;;;;;;;3.63;1.37;;;;;;;16.85;48.08;100413.91;1691518;84;21109;-56
2022/09/11 07:08:41;;;;;;;6.10;1.87;;;;;;;16.92;48.17;100418.08;1685439;85;20987;-55
2022/09/11 07:11:08;;;;;;;3.63;1.20;;;;;;;16.96;48.00;100409.22;1684933;84;22185;-65
2022/09/11 07:13:37;;;;;;;4.83;1.70;;;;;;;17.03;47.21;100416.02;1685435;85;21314;-55
2022/09/11 07:16:07;;;;;;;4.30;1.60;;;;;;;16.98;46.86;100406.67;1685428;84;21983;-55
2022/09/11 07:18:37;;;;;;;4.10;1.60;;;;;;;16.94;46.88;100395.48;1685443;84;21484;-55
2022/09/11 07:21:10;;;;;;;;;;;;;;;17.00;47.31;100393.27;1687068;84;20983;-66
2022/09/11 07:23:39;;;;;;;8.17;2.27;;;;;;;17.17;46.88;100402.70;1684978;84;20162;-55
2022/09/11 07:26:09;;;;;;;3.73;1.50;;;;;;;17.26;46.78;100401.34;1685584;85;22323;-55
2022/09/11 07:28:37;;;;;;;5.30;1.33;;;;;;;17.46;45.90;100393.16;1637686;85;20967;-56
2022/09/11 07:31:15;;;;;;;3.10;1.20;;;;;;;17.70;45.26;100388.77;1685191;84;21003;-66
2022/09/11 07:33:48;;;;;;;4.37;1.50;;;;;;;18.03;44.94;100389.56;1691431;84;21598;-56
2022/09/11 07:36:16;;;;;;;4.57;1.30;;;;;;;18.31;43.95;100372.26;1685131;84;21066;-55
2022/09/11 07:38:45;;;;;;;5.07;1.00;;;;;;;18.46;43.46;100377.86;1685771;84;21251;-66
2022/09/11 07:41:14;;;;;;;5.00;1.10;;;;;;;18.48;43.01;100368.66;1684642;84;21013;-57
2022/09/11 07:43:44;;;;;;;3.50;0.90;;;;;;;18.44;42.91;100376.75;1685524;84;21552;-55
2022/09/11 07:46:11;;;;;;;2.60;0.97;;;;;;;18.33;42.73;100371.49;1685651;85;21022;-56
2022/09/11 07:48:38;;;;;;;3.90;1.10;;;;;;;18.19;42.64;100363.03;1685690;84;21089;-57
2022/09/11 07:51:07;;;;;;;6.30;1.47;;;;;;;18.05;42.85;100380.12;1684967;85;21297;-56
2022/09/11 07:53:43;;;;;;;3.42;1.22;;;;;;;17.96;43.48;100377.02;1685989;85;21304;-55
2022/09/11 07:56:17;;;;;;;5.00;1.27;;;;;;;17.97;44.27;100374.67;1685963;84;21492;-55
2022/09/11 07:58:45;;;;;;;2.87;0.87;;;;;;;18.03;43.74;100371.09;1685790;84;21086;-64
2022/09/11 08:01:15;;;;;;;3.67;1.30;;;;;;;18.09;44.01;100370.71;1685755;84;22374;-55
2022/09/11 08:03:42;;;;;;;5.43;1.60;;;;;;;18.14;43.92;100366.86;1686083;85;21248;-56
2022/09/11 08:06:13;;;;;;;4.50;1.50;;;;;;;18.21;43.74;100366.23;1688503;84;21085;-55
2022/09/11 08:08:41;;;;;;;4.60;1.92;;;;;;;18.30;43.53;100357.47;1695707;84;20996;-61
2022/09/11 08:11:15;;;;;;;5.93;1.67;;;;;;;18.41;43.33;100363.22;1695562;84;21019;-55
2022/09/11 08:13:52;;;;;;;6.37;2.53;;;;;;;18.55;42.88;100362.46;1696136;84;21022;-57
2022/09/11 08:16:23;;;;;;;7.03;1.40;;;;;;;18.65;42.71;100356.08;1696069;84;21148;-55
2022/09/11 08:18:52;;;;;;;9.73;1.52;;;;;;;18.81;42.74;100347.95;1664935;84;21014;-56
2022/09/11 08:21:19;;;;;;;3.77;1.30;;;;;;;18.91;42.27;100355.56;1695803;84;21129;-55
2022/09/11 08:23:47;;;;;;;4.77;1.77;;;;;;;19.04;42.27;100347.86;1695885;84;21071;-55
2022/09/11 08:26:20;;;;;;;7.87;2.10;;;;;;;19.18;42.03;100348.39;1695937;84;21054;-56
2022/09/11 08:28:49;;;;;;;5.73;1.63;;;;;;;19.30;42.07;100349.64;1695235;84;21314;-55
2022/09/11 08:31:18;;;;;;;4.73;1.37;;;;;;;19.40;41.83;100337.41;1695899;84;21005;-55
2022/09/11 08:33:45;;;;;;;6.03;1.60;;;;;;;19.50;41.75;100340.72;1695986;84;21496;-55
2022/09/11 08:36:13;;;;;;;5.90;1.57;;;;;;;19.50;41.59;100331.99;1696105;84;21003;-56
2022/09/11 08:38:41;;;;;;;4.00;1.33;;;;;;;19.42;41.07;100337.95;1694412;84;21033;-66
2022/09/11 08:41:40;;;;;;;3.67;1.50;;;;;;;19.33;41.11;100335.44;1695442;84;21555;-56
2022/09/11 08:44:19;;;;;;;5.23;1.90;;;;;;;19.27;41.32;100331.09;1694679;84;21062;-66
2022/09/11 08:46:52;;;;;;;5.23;1.77;;;;;;;19.16;41.57;100347.81;1695826;84;21743;-56
2022/09/11 08:49:27;;;;;;;3.73;1.40;;;;;;;19.15;41.51;100340.41;1695666;84;21029;-55
2022/09/11 08:51:58;;;;;;;4.50;1.50;;;;;;;19.20;41.63;100340.48;1694809;84;21066;-55
2022/09/11 08:54:36;;;;;;;3.43;1.10;;;;;;;19.20;41.35;100331.23;1695421;84;21331;-55
2022/09/11 08:57:45;;;;;;;4.77;1.80;;;;;;;19.25;41.43;100362.26;1695723;84;21014;-55
2022/09/11 09:00:25;;;;;;;8.50;2.43;;;;;;;19.33;41.00;100330.15;1680796;84;21101;-55
2022/09/11 09:03:34;;;;;;;4.53;1.50;;;;;;;19.40;41.15;100319.42;1694865;84;21023;-55
2022/09/11 09:06:21;;;;;;;3.57;1.30;;;;;;;19.45;41.29;100330.08;1694479;84;21014;-61
2022/09/11 09:09:06;;;;;;;4.57;1.50;;;;;;;19.53;40.95;100315.13;1686013;84;21829;-58
2022/09/11 09:11:47;;;;;;;4.50;1.83;;;;;;;19.60;41.34;100318.94;1687979;84;21022;-61
2022/09/11 09:14:28;;;;;;;5.30;2.20;;;;;;;19.68;41.09;100304.02;1670632;84;21097;-57
2022/09/11 09:17:03;;;;;;;5.67;1.70;;;;;;;19.74;41.30;100308.36;1687934;84;21015;-67
2022/09/11 09:19:48;;;;;;;5.23;1.60;;;;;;;19.74;40.91;100305.71;1687445;84;21110;-55
2022/09/11 09:22:39;;;;;;;4.90;1.60;;;;;;;19.68;41.14;100305.34;1687675;84;21993;-55
2022/09/11 09:25:12;;;;;;;4.83;1.20;;;;;;;19.62;41.03;100294.40;1687744;84;21026;-55
2022/09/11 09:27:45;;;;;;;7.83;2.03;;;;;;;19.51;40.91;100298.73;1655876;84;20994;-56
2022/09/11 09:30:20;;;;;;;4.27;1.30;;;;;;;19.42;41.04;100298.30;1687586;84;20997;-57
2022/09/11 09:32:57;;;;;;;3.37;1.30;;;;;;;19.37;40.89;100296.91;1654884;84;21023;-56
2022/09/11 09:35:42;;;;;;;5.77;1.80;;;;;;;19.27;40.54;100297.26;1688219;84;21261;-56
2022/09/11 09:38:18;;;;;;;4.53;1.33;;;;;;;19.20;40.72;100287.63;1688121;84;21828;-64
2022/09/11 09:41:00;;;;;;;5.80;1.40;;;;;;;19.12;41.73;100289.88;1687599;84;21458;-55
2022/09/11 09:43:39;;;;;;;4.70;1.27;;;;;;;19.13;42.00;100281.72;1661884;84;21156;-55
2022/09/11 09:46:31;;;;;;;4.50;1.17;;;;;;;19.14;42.05;100278.03;1687782;84;21022;-58
2022/09/11 09:49:00;;;;;;;5.60;1.33;;;;;;;19.15;41.63;100275.66;1687532;84;21420;-56
2022/09/11 09:51:27;;;;;;;5.00;1.40;;;;;;;19.15;41.60;100279.62;1687329;84;21960;-64
2022/09/11 09:53:57;;;;;;;6.00;1.33;;;;;;;19.18;41.59;100283.12;1688134;84;21081;-56
2022/09/11 09:56:24;;;;;;;3.00;1.17;;;;;;;19.23;41.35;100280.28;1687689;84;21006;-55
2022/09/11 09:59:14;;;;;;;6.27;1.67;;;;;;;19.23;41.74;100267.06;1687547;84;21461;-55
2022/09/11 10:01:48;;;;;;;3.43;1.40;;;;;;;19.33;41.96;100269.36;1687868;84;21491;-56
2022/09/11 10:04:30;;;;;;;7.50;1.30;;;;;;;19.42;41.92;100273.19;1687323;84;21121;-57
2022/09/11 10:07:09;;;;;;;3.53;1.30;;;;;;;19.45;41.47;100274.03;1686102;84;21522;-57
2022/09/11 10:09:45;;;;;;;5.10;2.07;;;;;;;19.42;40.96;100269.75;1684656;84;21039;-56
2022/09/11 10:12:23;;;;;;;7.03;2.70;;;;;;;19.39;41.09;100276.30;1685014;84;35635;-57
2022/09/11 10:14:58;;;;;;;5.47;2.70;;;;;;;19.44;41.53;100272.97;1684839;85;21754;-56
2022/09/11 10:17:35;;;;;;;6.73;3.60;;;;;;;19.48;41.18;100276.73;1685285;85;20990;-55
2022/09/11 10:20:25;;;;;;;8.40;1.70;;;;;;;19.52;41.50;100275.20;1685395;85;21425;-56
2022/09/11 10:22:53;;;;;;;3.93;1.40;;;;;;;19.57;41.48;100273.94;1685202;84;21049;-55
2022/09/11 10:25:25;;;;;;;3.93;1.50;;;;;;;19.83;42.07;100273.03;1684763;85;21548;-62
2022/09/11 10:28:13;;;;;;;7.17;1.87;;;;;;;19.87;41.54;100276.78;1685291;85;21331;-67
2022/09/11 10:30:43;;;;;;;6.57;1.20;;;;;;;19.92;41.51;100275.52;1670537;84;21019;-55
2022/09/11 10:33:27;;;;;;;5.13;1.13;;;;;;;20.01;42.05;100262.17;1666371;85;21007;-56
2022/09/11 10:35:54;;;;;;;5.97;1.30;;;;;;;20.08;42.56;100264.11;1685157;84;21725;-55
2022/09/11 10:38:32;;;;;;;5.07;1.10;;;;;;;20.25;41.94;100261.92;1685411;85;21628;-55
2022/09/11 10:41:18;;;;;;;3.37;1.57;;;;;;;20.32;41.98;100251.42;1685225;85;21483;-55
2022/09/11 10:43:57;;;;;;;2.93;1.00;;;;;;;20.48;41.86;100256.36;1685540;85;21952;-55
2022/09/11 10:46:36;;;;;;;2.93;1.07;;;;;;;20.55;41.36;100249.59;1684639;84;21046;-56
2022/09/11 10:49:22;;;;;;;7.10;1.40;;;;;;;20.52;41.02;100242.92;1684827;84;21009;-57
2022/09/11 10:52:09;;;;;;;2.30;0.97;;;;;;;20.49;41.47;100239.45;1684506;85;20931;-58
2022/09/11 10:55:05;;;;;;;4.07;1.10;;;;;;;20.49;41.32;100242.59;1684606;85;22387;-56
2022/09/11 10:57:53;;;;;;;5.97;1.40;;;;;;;20.48;41.01;100239.15;1685368;84;21069;-56
2022/09/11 11:00:27;;;;;;;3.83;1.30;;;;;;;20.49;41.60;100240.77;1690945;84;21098;-56
2022/09/11 11:03:00;;;;;;;5.70;1.40;;;;;;;20.58;42.32;100226.05;1684230;84;21639;-56
2022/09/11 11:06:20;;;;;;;3.77;1.20;;;;;;;20.57;41.84;100221.81;1685602;84;21062;-55
2022/09/11 11:08:58;;;;;;;7.17;1.47;;;;;;;20.54;41.98;100214.89;1685400;84;21146;-56
2022/09/11 11:12:09;;;;;;;3.57;1.10;;;;;;;20.58;42.72;100202.22;1684912;84;21001;-56
2022/09/11 11:14:53;;;;;;;2.30;0.90;;;;;;;20.58;41.50;100219.44;1684832;84;21500;-57
2022/09/11 11:17:39;;;;;;;5.73;1.50;;;;;;;20.56;41.48;100211.45;1683626;84;20980;-58
2022/09/11 11:20:36;;;;;;;4.50;1.20;;;;;;;20.56;41.23;100196.36;1684687;84;21497;-57
2022/09/11 11:23:23;;;;;;;5.37;1.13;;;;;;;20.56;41.02;100195.03;1685499;84;21886;-57
2022/09/11 11:26:24;;;;;;;5.70;1.37;;;;;;;20.62;41.32;100191.39;1685052;84;21125;-56
2022/09/11 11:29:23;;;;;;;3.58;1.25;;;;;;;20.65;41.74;100183.48;1685197;84;20975;-67
2022/09/11 11:32:29;;;;;;;4.90;1.60;;;;;;;20.73;41.32;100180.91;1685255;84;21476;-57
2022/09/11 11:35:25;;;;;;;4.83;1.70;;;;;;;20.74;41.10;100182.49;1645184;84;21583;-57
2022/09/11 11:37:57;;;;;;;7.87;2.17;;;;;;;20.70;40.69;100181.40;1684650;84;21139;-57
2022/09/11 11:40:50;;;;;;;4.90;1.90;;;;;;;20.66;41.26;100187.72;1684579;84;21475;-57
2022/09/11 11:43:18;;;;;;;3.80;1.33;;;;;;;20.59;40.81;100183.15;1685035;84;20995;-56
2022/09/11 11:46:05;;;;;;;5.13;1.60;;;;;;;20.51;41.27;100175.66;1684651;84;21006;-56
2022/09/11 11:48:52;;;;;;;47.33;23.47;;;;;;;20.45;41.20;100170.80;1685104;84;21374;-56
2022/09/11 11:51:31;;;;;;;22.60;10.27;;;;;;;20.40;41.76;100173.41;1685130;84;21193;-55
2022/09/11 11:54:38;;;;;;;19.43;6.33;;;;;;;20.42;42.04;100177.94;1684321;84;21002;-56
2022/09/11 11:57:21;;;;;;;18.33;8.20;;;;;;;20.51;41.87;100172.48;1684810;85;21381;-66
2022/09/11 11:59:58;;;;;;;9.27;3.97;;;;;;;20.61;41.37;100179.73;1685132;84;20975;-55
2022/09/11 12:02:33;;;;;;;11.40;3.07;;;;;;;20.65;41.70;100165.73;1685380;85;21155;-56